createdAt,value
2023-02-19T00:01:43.836Z,78.45
2023-02-19T00:04:20.016Z,77.79
2023-02-19T00:06:49.238Z,78.16
2023-02-19T00:09:19.170Z,77.81
2023-02-19T00:11:47.991Z,78.46
2023-02-19T00:14:18.172Z,77.73
2023-02-19T00:16:46.179Z,78.15
2023-02-19T00:19:20.737Z,78.06
2023-02-19T00:21:50.966Z,77.61
2023-02-19T00:24:19.409Z,77.78
2023-02-19T00:26:47.346Z,77.95
2023-02-19T00:29:17.287Z,77.74
2023-02-19T00:31:45.422Z,77.90
2023-02-19T00:34:14.033Z,77.13
2023-02-19T00:36:42.714Z,76.97
2023-02-19T00:39:14.404Z,77.38
2023-02-19T00:41:41.540Z,77.59
2023-02-19T00:44:11.111Z,77.67
2023-02-19T00:46:40.813Z,77.81
2023-02-19T00:49:16.766Z,77.31
2023-02-19T00:51:44.029Z,77.29
2023-02-19T00:54:12.372Z,78.33
2023-02-19T00:56:40.367Z,78.93
2023-02-19T00:59:07.574Z,79.07
2023-02-19T01:01:34.889Z,80.19
2023-02-19T01:04:02.047Z,79.76
2023-02-19T01:06:30.968Z,79.84
2023-02-19T01:08:58.213Z,79.43
2023-02-19T01:11:25.576Z,79.94
2023-02-19T01:13:52.890Z,80.21
2023-02-19T01:16:22.528Z,80.35
2023-02-19T01:18:49.583Z,80.98
2023-02-19T01:21:21.965Z,81.99
2023-02-19T01:23:50.993Z,81.13
2023-02-19T01:26:20.883Z,80.90
2023-02-19T01:28:48.557Z,81.34
2023-02-19T01:31:24.217Z,81.94
2023-02-19T01:33:55.205Z,82.15
2023-02-19T01:36:22.471Z,82.04
2023-02-19T01:38:50.212Z,82.91
2023-02-19T01:41:21.271Z,83.22
2023-02-19T01:44:14.532Z,82.55
2023-02-19T01:46:43.442Z,82.74
2023-02-19T01:49:22.008Z,83.13
2023-02-19T01:51:56.679Z,82.67
2023-02-19T01:54:27.279Z,82.84
2023-02-19T01:56:56.263Z,82.81
2023-02-19T01:59:23.721Z,83.54
2023-02-19T02:01:52.345Z,83.88
2023-02-19T02:04:19.754Z,84.15
2023-02-19T02:06:56.839Z,84.58
2023-02-19T02:09:46.950Z,84.94
2023-02-19T02:12:14.371Z,85.08
2023-02-19T02:14:47.907Z,85.53
2023-02-19T02:17:26.952Z,84.85
2023-02-19T02:20:03.562Z,86.08
2023-02-19T02:22:41.194Z,85.79
2023-02-19T02:25:37.561Z,86.24
2023-02-19T02:28:30.052Z,87.48
2023-02-19T02:31:08.487Z,87.62
2023-02-19T02:33:59.702Z,87.47
2023-02-19T02:36:32.020Z,87.66
2023-02-19T02:39:00.398Z,86.90
2023-02-19T02:41:28.254Z,88.63
2023-02-19T02:43:55.490Z,90.00
2023-02-19T02:46:33.338Z,90.73
2023-02-19T02:49:07.047Z,91.55
2023-02-19T02:51:43.831Z,91.75
2023-02-19T02:55:02.901Z,91.68
2023-02-19T02:57:32.355Z,92.61
2023-02-19T03:00:00.593Z,93.21
2023-02-19T03:02:31.637Z,92.56
2023-02-19T03:05:25.551Z,93.61
2023-02-19T03:07:56.707Z,93.61
2023-02-19T03:10:33.836Z,94.44
2023-02-19T03:13:25.540Z,95.22
2023-02-19T03:16:20.426Z,94.53
2023-02-19T03:19:12.580Z,94.24
2023-02-19T03:21:44.052Z,96.09
2023-02-19T03:24:31.599Z,97.46
2023-02-19T03:27:01.177Z,97.49
2023-02-19T03:29:35.954Z,97.43
2023-02-19T03:32:25.878Z,97.29
2023-02-19T03:35:19.278Z,96.61
2023-02-19T03:37:58.944Z,96.39
2023-02-19T03:40:30.431Z,97.44
2023-02-19T03:43:00.814Z,98.51
2023-02-19T03:45:46.811Z,98.90
2023-02-19T03:48:32.409Z,99.27
2023-02-19T03:51:13.575Z,99.85
2023-02-19T03:54:02.753Z,100.00
2023-02-19T03:56:59.800Z,100.00
2023-02-19T03:59:38.199Z,100.00
2023-02-19T04:02:12.280Z,100.00
2023-02-19T04:04:58.778Z,100.00
2023-02-19T04:07:30.308Z,100.00
2023-02-19T04:09:57.778Z,100.00
2023-02-19T04:12:25.525Z,100.00
2023-02-19T04:15:00.994Z,100.00
2023-02-19T04:17:36.122Z,100.00
2023-02-19T04:20:09.469Z,100.00
2023-02-19T04:22:38.583Z,100.00
2023-02-19T04:25:06.064Z,100.00
2023-02-19T04:27:37.822Z,100.00
2023-02-19T04:30:07.591Z,100.00
2023-02-19T04:32:35.061Z,100.00
2023-02-19T04:35:02.949Z,100.00
2023-02-19T04:37:30.263Z,100.00
2023-02-19T04:39:57.570Z,100.00
2023-02-19T04:42:25.050Z,100.00
2023-02-19T04:44:52.214Z,100.00
2023-02-19T04:47:20.079Z,100.00
2023-02-19T04:49:47.593Z,100.00
2023-02-19T04:52:15.277Z,100.00
2023-02-19T04:54:43.150Z,100.00
2023-02-19T04:57:11.393Z,100.00
2023-02-19T04:59:39.250Z,100.00
2023-02-19T05:02:06.414Z,100.00
2023-02-19T05:04:36.744Z,100.00
2023-02-19T05:07:04.255Z,100.00
2023-02-19T05:09:31.606Z,100.00
2023-02-19T05:11:59.283Z,100.00
2023-02-19T05:14:27.163Z,100.00
2023-02-19T05:16:54.547Z,100.00
2023-02-19T05:19:21.979Z,100.00
2023-02-19T05:21:49.372Z,100.00
2023-02-19T05:24:17.021Z,100.00
2023-02-19T05:26:45.501Z,100.00
2023-02-19T05:29:13.778Z,100.00
2023-02-19T05:31:41.330Z,100.00
2023-02-19T05:34:09.416Z,100.00
2023-02-19T05:36:38.047Z,100.00
2023-02-19T05:39:06.522Z,100.00
2023-02-19T05:41:34.142Z,100.00
2023-02-19T05:44:01.608Z,100.00
2023-02-19T05:46:30.501Z,100.00
2023-02-19T05:49:01.261Z,100.00
2023-02-19T05:51:29.986Z,100.00
2023-02-19T05:53:58.782Z,100.00
2023-02-19T05:56:42.963Z,100.00
2023-02-19T05:59:18.169Z,100.00
2023-02-19T06:01:46.708Z,100.00
2023-02-19T06:04:15.082Z,100.00
2023-02-19T06:06:44.287Z,100.00
2023-02-19T06:09:12.529Z,100.00
2023-02-19T06:11:41.187Z,100.00
2023-02-19T06:14:09.289Z,100.00
2023-02-19T06:16:37.322Z,99.93
2023-02-19T06:19:05.854Z,98.65
2023-02-19T06:21:34.032Z,97.47
2023-02-19T06:24:06.752Z,96.53
2023-02-19T06:26:33.971Z,95.18
2023-02-19T06:29:01.374Z,93.88
2023-02-19T06:31:30.275Z,93.75
2023-02-19T06:33:57.982Z,94.19
2023-02-19T06:36:25.810Z,93.56
2023-02-19T06:38:54.109Z,92.08
2023-02-19T06:41:22.312Z,92.26
2023-02-19T06:43:50.974Z,89.48
2023-02-19T06:46:19.182Z,87.09
2023-02-19T06:48:47.363Z,84.90
2023-02-19T06:51:25.032Z,84.81
2023-02-19T06:53:56.331Z,82.32
2023-02-19T06:56:29.616Z,81.49
2023-02-19T06:59:00.389Z,81.46
2023-02-19T07:01:28.714Z,82.11
2023-02-19T07:03:57.235Z,77.01
2023-02-19T07:06:27.428Z,76.93
2023-02-19T07:08:57.494Z,77.48
2023-02-19T07:11:25.650Z,76.19
2023-02-19T07:13:57.620Z,71.67
2023-02-19T07:16:28.330Z,73.10
2023-02-19T07:18:59.680Z,70.89
2023-02-19T07:21:27.884Z,72.12
2023-02-19T07:23:55.392Z,71.18
2023-02-19T07:26:23.506Z,69.57
2023-02-19T07:28:52.583Z,69.28
2023-02-19T07:31:22.844Z,69.88
2023-02-19T07:33:51.333Z,69.55
2023-02-19T07:36:20.286Z,69.95
2023-02-19T07:38:48.755Z,70.56
2023-02-19T07:41:17.340Z,71.07
2023-02-19T07:43:45.074Z,71.54
2023-02-19T07:46:15.765Z,71.87
2023-02-19T07:48:45.140Z,72.46
2023-02-19T07:51:19.622Z,72.13
2023-02-19T07:53:48.290Z,71.60
2023-02-19T07:56:16.378Z,71.29
2023-02-19T07:58:44.710Z,71.05
2023-02-19T08:01:40.756Z,70.43
2023-02-19T08:04:09.526Z,70.84
2023-02-19T08:06:37.156Z,70.89
2023-02-19T08:09:06.537Z,70.68
2023-02-19T08:11:52.860Z,70.79
2023-02-19T08:14:20.932Z,70.88
2023-02-19T08:16:52.365Z,70.68
2023-02-19T08:19:20.342Z,70.43
2023-02-19T08:21:48.211Z,70.32
2023-02-19T08:24:15.730Z,70.16
2023-02-19T08:26:43.149Z,69.90
2023-02-19T08:29:11.169Z,70.07
2023-02-19T08:31:39.478Z,69.62
2023-02-19T08:34:07.131Z,68.43
2023-02-19T08:36:34.579Z,68.73
2023-02-19T08:39:02.356Z,69.83
2023-02-19T08:41:30.483Z,69.57
2023-02-19T08:43:58.702Z,69.46
2023-02-19T08:46:26.465Z,67.94
2023-02-19T08:48:54.180Z,67.52
2023-02-19T08:51:21.799Z,66.06
2023-02-19T08:53:49.612Z,65.01
2023-02-19T08:56:18.103Z,64.57
2023-02-19T08:58:46.630Z,65.55
2023-02-19T09:01:19.018Z,66.02
2023-02-19T09:03:46.736Z,66.62
2023-02-19T09:06:20.366Z,67.69
2023-02-19T09:08:48.445Z,68.77
2023-02-19T09:11:15.959Z,69.01
2023-02-19T09:13:44.471Z,69.53
2023-02-19T09:16:12.583Z,70.07
2023-02-19T09:18:40.620Z,70.08
2023-02-19T09:21:08.252Z,70.85
2023-02-19T09:23:36.997Z,71.25
2023-02-19T09:26:08.829Z,71.32
2023-02-19T09:28:36.722Z,71.11
2023-02-19T09:31:09.417Z,70.62
2023-02-19T09:33:37.231Z,68.80
2023-02-19T09:36:05.225Z,67.99
2023-02-19T09:38:32.698Z,68.34
2023-02-19T09:41:06.351Z,66.44
2023-02-19T09:43:34.664Z,64.69
2023-02-19T09:46:12.234Z,65.11
2023-02-19T09:48:40.394Z,64.79
2023-02-19T09:51:11.336Z,64.18
2023-02-19T09:53:44.339Z,63.45
2023-02-19T09:56:12.156Z,63.89
2023-02-19T09:59:00.446Z,64.15
2023-02-19T10:01:34.558Z,64.20
2023-02-19T10:04:02.203Z,63.65
2023-02-19T10:06:30.460Z,63.68
2023-02-19T10:09:31.075Z,63.42
2023-02-19T10:12:00.750Z,63.04
2023-02-19T10:14:57.286Z,62.90
2023-02-19T10:17:30.851Z,61.72
2023-02-19T10:19:59.552Z,62.19
2023-02-19T10:22:27.487Z,61.94
2023-02-19T10:24:57.025Z,61.77
2023-02-19T10:27:30.636Z,60.77
2023-02-19T10:29:59.379Z,61.37
2023-02-19T10:32:27.842Z,59.09
2023-02-19T10:35:13.569Z,59.08
2023-02-19T10:37:46.790Z,58.31
2023-02-19T10:40:21.925Z,56.68
2023-02-19T10:42:52.547Z,57.24
2023-02-19T10:45:30.755Z,57.94
2023-02-19T10:47:58.726Z,57.11
2023-02-19T10:50:31.744Z,56.38
2023-02-19T10:53:01.571Z,56.18
2023-02-19T10:55:37.727Z,53.79
2023-02-19T10:58:40.641Z,56.13
2023-02-19T11:01:14.304Z,54.49
2023-02-19T11:03:42.330Z,55.36
2023-02-19T11:06:12.737Z,53.18
2023-02-19T11:08:51.365Z,53.27
2023-02-19T11:11:37.228Z,52.77
2023-02-19T11:14:24.527Z,53.39
2023-02-19T11:16:57.746Z,52.71
2023-02-19T11:19:37.498Z,51.74
2023-02-19T11:22:39.140Z,52.20
2023-02-19T11:25:19.316Z,53.42
2023-02-19T11:28:21.088Z,54.75
2023-02-19T11:30:49.418Z,52.98
2023-02-19T11:33:16.909Z,52.86
2023-02-19T11:35:45.236Z,52.25
2023-02-19T11:38:15.828Z,52.89
2023-02-19T11:41:05.498Z,53.17
2023-02-19T11:43:58.502Z,53.58
2023-02-19T11:46:57.975Z,53.28
2023-02-19T11:49:28.544Z,52.80
2023-02-19T11:52:01.234Z,54.84
2023-02-19T11:54:51.526Z,55.76
2023-02-19T11:57:49.554Z,55.99
2023-02-19T12:00:31.730Z,56.45
2023-02-19T12:03:23.160Z,56.33
2023-02-19T12:06:02.708Z,57.09
2023-02-19T12:09:13.543Z,55.68
2023-02-19T12:11:56.092Z,56.06
2023-02-19T12:14:44.841Z,56.26
2023-02-19T12:17:50.341Z,55.88
2023-02-19T12:20:55.240Z,56.50
2023-02-19T12:23:44.165Z,57.58
2023-02-19T12:26:27.790Z,58.29
2023-02-19T12:29:31.612Z,58.85
2023-02-19T12:32:41.493Z,59.42
2023-02-19T12:35:26.475Z,59.95
2023-02-19T12:38:15.209Z,60.23
2023-02-19T12:41:03.985Z,59.81
2023-02-19T12:43:33.755Z,59.49
2023-02-19T12:46:17.735Z,58.07
2023-02-19T12:49:06.498Z,58.46
2023-02-19T12:51:42.144Z,57.70
2023-02-19T12:54:35.189Z,57.52
2023-02-19T12:57:18.661Z,58.20
2023-02-19T12:59:50.025Z,58.37
2023-02-19T13:02:34.092Z,58.36
2023-02-19T13:05:41.872Z,59.02
2023-02-19T13:08:34.117Z,58.81
2023-02-19T13:11:16.023Z,59.21
2023-02-19T13:13:49.856Z,58.98
2023-02-19T13:16:19.880Z,58.69
2023-02-19T13:18:58.590Z,58.73
2023-02-19T13:21:58.311Z,58.44
2023-02-19T13:24:34.473Z,57.97
2023-02-19T13:27:11.640Z,58.11
2023-02-19T13:30:10.121Z,58.04
2023-02-19T13:33:03.183Z,58.29
2023-02-19T13:35:56.418Z,58.31
2023-02-19T13:38:24.934Z,58.16
2023-02-19T13:40:58.266Z,58.83
2023-02-19T13:43:35.079Z,58.82
2023-02-19T13:46:12.639Z,58.84
2023-02-19T13:48:42.832Z,58.93
2023-02-19T13:51:13.400Z,59.16
2023-02-19T13:53:48.512Z,58.60
2023-02-19T13:56:37.326Z,59.14
2023-02-19T13:59:25.193Z,58.91
2023-02-19T14:01:55.370Z,59.13
2023-02-19T14:04:43.081Z,59.01
2023-02-19T14:07:11.336Z,59.91
2023-02-19T14:09:42.075Z,60.20
2023-02-19T14:12:10.271Z,60.50
2023-02-19T14:14:39.999Z,60.84
2023-02-19T14:17:10.597Z,60.58
2023-02-19T14:20:02.196Z,61.21
2023-02-19T14:22:48.263Z,60.89
2023-02-19T14:25:24.769Z,61.10
2023-02-19T14:27:54.288Z,62.08
2023-02-19T14:30:24.329Z,62.16
2023-02-19T14:33:02.744Z,62.35
2023-02-19T14:35:43.584Z,62.89
2023-02-19T14:38:36.806Z,62.80
2023-02-19T14:41:06.955Z,63.66
2023-02-19T14:43:36.154Z,63.89
2023-02-19T14:46:25.226Z,63.63
2023-02-19T14:48:53.441Z,63.43
2023-02-19T14:51:51.657Z,63.61
2023-02-19T14:54:30.333Z,63.92
2023-02-19T14:57:00.058Z,64.33
2023-02-19T14:59:29.931Z,64.33
2023-02-19T15:02:03.672Z,64.42
2023-02-19T15:04:37.625Z,65.12
2023-02-19T15:07:09.710Z,65.30
2023-02-19T15:09:48.783Z,65.52
2023-02-19T15:12:23.849Z,65.48
2023-02-19T15:14:56.081Z,66.18
2023-02-19T15:17:30.361Z,65.75
2023-02-19T15:20:03.448Z,66.19
2023-02-19T15:22:35.480Z,67.02
2023-02-19T15:25:05.266Z,66.62
2023-02-19T15:27:36.043Z,67.52
2023-02-19T15:30:04.342Z,67.66
2023-02-19T15:32:32.984Z,67.74
2023-02-19T15:35:03.340Z,67.75
2023-02-19T15:37:35.830Z,67.76
2023-02-19T15:40:08.313Z,67.80
2023-02-19T15:42:38.312Z,67.98
2023-02-19T15:45:26.563Z,69.00
2023-02-19T15:47:57.075Z,70.01
2023-02-19T15:50:30.656Z,69.78
2023-02-19T15:53:07.380Z,69.90
2023-02-19T15:55:56.976Z,69.46
2023-02-19T15:58:32.606Z,69.94
2023-02-19T16:01:09.102Z,70.25
2023-02-19T16:03:37.116Z,70.45
2023-02-19T16:06:10.960Z,70.54
2023-02-19T16:08:40.464Z,71.34
2023-02-19T16:11:28.534Z,70.92
2023-02-19T16:14:18.361Z,71.11
2023-02-19T16:16:49.677Z,71.19
2023-02-19T16:19:47.726Z,72.20
2023-02-19T16:22:19.670Z,72.04
2023-02-19T16:24:50.903Z,72.89
2023-02-19T16:27:39.629Z,72.43
2023-02-19T16:30:26.198Z,72.10
2023-02-19T16:33:39.405Z,72.58
2023-02-19T16:36:22.876Z,72.56
2023-02-19T16:39:08.753Z,73.67
2023-02-19T16:41:48.588Z,72.82
2023-02-19T16:44:22.008Z,74.16
2023-02-19T16:46:51.880Z,74.13
2023-02-19T16:49:20.323Z,74.52
2023-02-19T16:51:48.192Z,73.39
2023-02-19T16:54:16.018Z,73.16
2023-02-19T16:56:43.686Z,74.72
2023-02-19T16:59:11.878Z,74.40
2023-02-19T17:01:39.538Z,75.57
2023-02-19T17:04:11.050Z,76.36
2023-02-19T17:06:40.019Z,76.66
2023-02-19T17:09:08.932Z,77.98
2023-02-19T17:11:37.192Z,79.07
2023-02-19T17:14:04.812Z,80.09
2023-02-19T17:16:40.701Z,81.77
2023-02-19T17:19:19.586Z,82.10
2023-02-19T17:21:47.730Z,81.62
2023-02-19T17:24:15.527Z,82.26
2023-02-19T17:26:43.054Z,82.80
2023-02-19T17:29:15.807Z,82.47
2023-02-19T17:31:43.390Z,82.77
2023-02-19T17:34:10.856Z,83.29
2023-02-19T17:36:38.565Z,83.08
2023-02-19T17:39:12.333Z,82.48
2023-02-19T17:41:39.787Z,81.34
2023-02-19T17:44:10.875Z,82.03
2023-02-19T17:46:41.473Z,81.54
2023-02-19T17:49:11.105Z,81.29
2023-02-19T17:51:38.900Z,80.32
2023-02-19T17:54:08.340Z,79.51
2023-02-19T17:56:36.216Z,79.80
2023-02-19T17:59:04.217Z,78.74
2023-02-19T18:01:32.613Z,78.85
2023-02-19T18:04:00.751Z,78.95
2023-02-19T18:06:28.478Z,78.89
2023-02-19T18:08:56.809Z,78.91
2023-02-19T18:11:24.875Z,79.31
2023-02-19T18:13:53.236Z,79.74
2023-02-19T18:16:22.108Z,79.96
2023-02-19T18:18:49.730Z,80.36
2023-02-19T18:21:17.378Z,80.75
2023-02-19T18:23:46.488Z,81.17
2023-02-19T18:26:19.049Z,81.29
2023-02-19T18:28:46.441Z,81.14
2023-02-19T18:31:13.949Z,81.86
2023-02-19T18:33:41.656Z,82.95
2023-02-19T18:36:12.095Z,82.35
2023-02-19T18:38:39.941Z,82.98
2023-02-19T18:41:11.972Z,83.00
2023-02-19T18:43:41.720Z,83.44
2023-02-19T18:46:10.166Z,84.52
2023-02-19T18:48:37.948Z,85.08
2023-02-19T18:51:06.101Z,85.28
2023-02-19T18:53:33.434Z,85.55
2023-02-19T18:56:02.358Z,86.15
2023-02-19T18:58:30.036Z,86.27
2023-02-19T19:00:59.092Z,86.43
2023-02-19T19:03:26.195Z,86.47
2023-02-19T19:05:53.601Z,86.71
2023-02-19T19:08:21.340Z,86.14
2023-02-19T19:10:48.985Z,86.03
2023-02-19T19:13:16.342Z,84.52
2023-02-19T19:15:45.380Z,83.88
2023-02-19T19:18:12.753Z,83.77
2023-02-19T19:20:42.103Z,83.12
2023-02-19T19:23:09.505Z,82.12
2023-02-19T19:25:37.731Z,80.71
2023-02-19T19:28:05.385Z,80.63
2023-02-19T19:30:33.905Z,80.10
2023-02-19T19:33:01.943Z,79.86
2023-02-19T19:35:32.052Z,79.30
2023-02-19T19:37:59.377Z,79.41
2023-02-19T19:40:26.648Z,79.65
2023-02-19T19:42:54.619Z,79.68
2023-02-19T19:45:21.841Z,79.89
2023-02-19T19:47:49.687Z,79.89
2023-02-19T19:50:18.565Z,79.91
2023-02-19T19:52:45.836Z,80.44
2023-02-19T19:55:13.351Z,81.26
2023-02-19T19:57:41.049Z,81.68
2023-02-19T20:00:10.027Z,82.22
2023-02-19T20:02:40.646Z,82.86
2023-02-19T20:05:08.552Z,83.19
2023-02-19T20:07:36.109Z,83.79
2023-02-19T20:10:04.049Z,83.86
2023-02-19T20:12:31.501Z,85.01
2023-02-19T20:14:59.011Z,86.03
2023-02-19T20:17:29.667Z,86.40
2023-02-19T20:19:56.980Z,87.63
2023-02-19T20:22:24.285Z,88.56
2023-02-19T20:24:53.319Z,90.16
2023-02-19T20:27:21.818Z,90.00
2023-02-19T20:29:49.322Z,90.97
2023-02-19T20:32:20.194Z,92.19
2023-02-19T20:34:48.769Z,91.99
2023-02-19T20:37:16.581Z,92.64
2023-02-19T20:39:44.296Z,93.14
2023-02-19T20:42:16.615Z,93.49
2023-02-19T20:44:44.562Z,93.58
2023-02-19T20:47:11.708Z,93.89
2023-02-19T20:49:45.091Z,92.83
2023-02-19T20:52:15.291Z,93.46
2023-02-19T20:54:43.117Z,94.21
2023-02-19T20:57:11.052Z,94.55
2023-02-19T20:59:39.119Z,95.53
2023-02-19T21:02:12.334Z,96.22
2023-02-19T21:04:40.925Z,96.78
2023-02-19T21:07:08.398Z,96.99
2023-02-19T21:09:36.235Z,97.33
2023-02-19T21:12:03.774Z,97.73
2023-02-19T21:14:31.970Z,97.79
2023-02-19T21:17:00.297Z,97.26
2023-02-19T21:19:27.609Z,96.15
2023-02-19T21:21:55.265Z,97.92
2023-02-19T21:24:23.082Z,97.80
2023-02-19T21:26:50.539Z,97.68
2023-02-19T21:29:23.068Z,96.71
2023-02-19T21:31:52.054Z,96.83
2023-02-19T21:34:22.907Z,97.58
2023-02-19T21:36:50.415Z,97.55
2023-02-19T21:39:21.896Z,97.25
2023-02-19T21:41:51.341Z,97.01
2023-02-19T21:44:19.079Z,97.12
2023-02-19T21:46:46.722Z,96.69
2023-02-19T21:49:14.129Z,96.65
2023-02-19T21:51:44.214Z,96.60
2023-02-19T21:54:21.912Z,96.44
2023-02-19T21:56:49.593Z,96.19
2023-02-19T21:59:16.973Z,95.84
2023-02-19T22:01:44.913Z,95.50
2023-02-19T22:04:18.766Z,95.14
2023-02-19T22:06:46.305Z,94.63
2023-02-19T22:09:16.891Z,94.81
2023-02-19T22:11:44.053Z,94.21
2023-02-19T22:14:11.349Z,94.09
2023-02-19T22:16:38.510Z,93.89
2023-02-19T22:19:05.632Z,93.69
2023-02-19T22:21:33.120Z,93.34
2023-02-19T22:24:02.463Z,93.01
2023-02-19T22:26:32.795Z,92.55
2023-02-19T22:29:00.155Z,91.94
2023-02-19T22:31:28.136Z,92.08
2023-02-19T22:33:57.099Z,91.82
2023-02-19T22:36:27.898Z,91.45
2023-02-19T22:38:55.301Z,91.67
2023-02-19T22:41:23.400Z,91.26
2023-02-19T22:43:54.244Z,90.88
2023-02-19T22:46:24.889Z,90.72
2023-02-19T22:48:52.452Z,90.85
2023-02-19T22:51:24.818Z,90.31
2023-02-19T22:53:58.038Z,90.68
2023-02-19T22:56:28.281Z,90.28
2023-02-19T22:58:57.701Z,90.23
2023-02-19T23:01:25.833Z,90.41
2023-02-19T23:03:56.708Z,90.85
2023-02-19T23:06:30.218Z,90.90
2023-02-19T23:08:59.478Z,90.65
2023-02-19T23:11:30.217Z,90.89
2023-02-19T23:13:58.321Z,91.03
2023-02-19T23:16:26.323Z,91.35
2023-02-19T23:18:54.872Z,90.83
2023-02-19T23:21:23.418Z,91.01
2023-02-19T23:23:50.551Z,90.67
2023-02-19T23:26:18.998Z,90.78
2023-02-19T23:28:46.560Z,91.00
2023-02-19T23:31:14.328Z,91.00
2023-02-19T23:33:42.029Z,90.23
2023-02-19T23:36:10.158Z,90.04
2023-02-19T23:38:37.546Z,90.11
2023-02-19T23:41:08.700Z,90.38
2023-02-19T23:43:36.143Z,90.31
2023-02-19T23:46:04.357Z,90.37
2023-02-19T23:48:32.167Z,90.16
2023-02-19T23:50:59.766Z,90.21
2023-02-19T23:53:27.264Z,90.76
2023-02-19T23:55:54.797Z,91.34
2023-02-19T23:58:22.879Z,91.14
